Time;durP1;ratioP1;P1;durP2;ratioP2;P2;SDS_P1;SDS_P2;PMS_P1;PMS_P2;Temp;Humidity;BMP_temperature;BMP_pressure;BME280_temperature;BME280_humidity;BME280_pressure;Samples;Min_cycle;Max_cycle;Signal;HPM_P1;HPM_P2
2024/01/11 00:00:20;;;;;;;52.60;27.33;;;;;;;-2.94;100.00;100643.69;5053080;28;20086;-70
2024/01/11 00:02:46;;;;;;;53.28;28.30;;;;;;;-2.74;100.00;100649.94;5052218;28;20032;-70
2024/01/11 00:05:11;;;;;;;56.88;27.45;;;;;;;-2.91;100.00;100640.50;5061378;28;20460;-71
2024/01/11 00:07:37;;;;;;;58.40;28.92;;;;;;;-2.65;100.00;100638.72;5050901;28;20108;-70
2024/01/11 00:10:03;;;;;;;48.63;25.98;;;;;;;-2.84;100.00;100649.53;5050424;28;20497;-70
2024/01/11 00:12:29;;;;;;;58.20;28.73;;;;;;;-2.64;100.00;100641.22;5048899;28;20063;-70
2024/01/11 00:14:54;;;;;;;56.47;28.77;;;;;;;-2.66;100.00;100642.50;5050684;28;20070;-70
2024/01/11 00:17:20;;;;;;;56.75;29.42;;;;;;;-3.08;100.00;100634.66;5024050;28;20025;-70
2024/01/11 00:19:48;;;;;;;54.15;27.98;;;;;;;-2.70;100.00;100633.91;5030780;28;20442;-70
2024/01/11 00:22:14;;;;;;;53.00;27.45;;;;;;;-2.47;100.00;100629.78;5029453;28;20534;-70
2024/01/11 00:24:40;;;;;;;50.00;26.17;;;;;;;-2.47;100.00;100622.38;5025059;28;20116;-70
2024/01/11 00:27:05;;;;;;;52.63;28.30;;;;;;;-2.45;100.00;100617.53;5048576;28;20025;-70
2024/01/11 00:29:31;;;;;;;63.40;31.80;;;;;;;-2.33;100.00;100611.34;5030591;28;20483;-71
2024/01/11 00:31:57;;;;;;;72.28;32.92;;;;;;;-2.28;100.00;100606.03;5032442;28;20032;-70
2024/01/11 00:34:22;;;;;;;68.10;32.60;;;;;;;-2.27;100.00;100588.53;5050531;28;20031;-68
2024/01/11 00:36:48;;;;;;;157.82;59.35;;;;;;;-2.32;100.00;100589.19;5050463;28;20040;-68
2024/01/11 00:39:13;;;;;;;154.80;63.53;;;;;;;-2.18;100.00;100591.84;5034353;28;20021;-68
2024/01/11 00:41:39;;;;;;;114.60;45.10;;;;;;;-2.29;100.00;100590.66;5053761;28;20087;-68
2024/01/11 00:44:04;;;;;;;97.07;42.95;;;;;;;-2.27;100.00;100580.31;5040053;28;20068;-68
2024/01/11 00:46:30;;;;;;;79.35;39.15;;;;;;;-2.17;100.00;100572.44;5034273;28;20047;-68
2024/01/11 00:48:55;;;;;;;83.55;38.67;;;;;;;-2.22;100.00;100566.75;5034291;28;20021;-68
2024/01/11 00:51:21;;;;;;;87.30;40.85;;;;;;;-2.24;100.00;100562.56;5041761;28;20029;-68
2024/01/11 00:53:46;;;;;;;76.20;33.97;;;;;;;-2.28;100.00;100565.75;5036334;28;20037;-68
2024/01/11 00:56:16;;;;;;;80.18;39.72;;;;;;;-2.45;100.00;100554.50;5037743;28;20083;-68
2024/01/11 00:58:42;;;;;;;68.15;35.35;;;;;;;-2.44;100.00;100561.66;5051140;28;20485;-68
2024/01/11 01:01:11;;;;;;;74.45;37.60;;;;;;;-2.35;100.00;100569.59;5042400;28;20026;-68
2024/01/11 01:03:37;;;;;;;73.65;34.85;;;;;;;-2.27;100.00;100569.34;5032649;28;20805;-68
2024/01/11 01:06:02;;;;;;;65.45;33.65;;;;;;;-2.36;100.00;100563.28;5032317;28;20022;-68
2024/01/11 01:08:28;;;;;;;74.68;38.08;;;;;;;-2.39;100.00;100563.72;5050211;28;20021;-68
2024/01/11 01:10:54;;;;;;;63.30;35.13;;;;;;;-2.57;100.00;100562.59;5052446;28;20083;-68
2024/01/11 01:13:20;;;;;;;60.13;33.03;;;;;;;-2.45;100.00;100557.22;5053666;28;20020;-68
2024/01/11 01:15:45;;;;;;;56.97;30.33;;;;;;;-2.49;100.00;100549.66;5053522;28;20024;-68
2024/01/11 01:18:10;;;;;;;68.97;35.40;;;;;;;-2.55;100.00;100540.44;5033634;28;20025;-68
2024/01/11 01:20:36;;;;;;;206.65;91.50;;;;;;;-2.37;100.00;100538.84;5051418;28;20029;-68
2024/01/11 01:23:02;;;;;;;122.20;57.33;;;;;;;-2.40;100.00;100540.97;5053370;28;20021;-68
2024/01/11 01:25:28;;;;;;;96.00;44.92;;;;;;;-2.41;100.00;100542.03;5035474;28;20021;-68
2024/01/11 01:27:53;;;;;;;100.95;46.70;;;;;;;-2.35;100.00;100537.56;5051366;28;20024;-68
2024/01/11 01:30:19;;;;;;;85.47;42.50;;;;;;;-2.58;100.00;100538.16;5033910;28;20033;-68
2024/01/11 01:32:45;;;;;;;63.10;33.58;;;;;;;-2.73;100.00;100535.72;5053229;28;20025;-68
2024/01/11 01:35:10;;;;;;;50.72;27.63;;;;;;;-2.93;100.00;100535.84;5052216;28;20037;-68
2024/01/11 01:37:36;;;;;;;47.03;24.23;;;;;;;-3.12;100.00;100538.47;5053252;28;20040;-68
2024/01/11 01:40:05;;;;;;;39.28;21.95;;;;;;;-3.48;100.00;100539.88;5052193;28;20033;-68
2024/01/11 01:42:30;;;;;;;49.80;24.35;;;;;;;-3.72;100.00;100534.88;5048520;28;20025;-68
2024/01/11 01:44:56;;;;;;;42.03;21.88;;;;;;;-3.87;100.00;100529.63;5035655;28;20031;-67
2024/01/11 01:47:21;;;;;;;48.78;23.25;;;;;;;-3.84;100.00;100526.50;5052622;28;20031;-67
2024/01/11 01:49:48;;;;;;;40.25;21.98;;;;;;;-3.93;100.00;100519.56;5051356;28;20033;-67
2024/01/11 01:52:16;;;;;;;42.47;21.55;;;;;;;-4.05;100.00;100524.81;5033610;28;20033;-67
2024/01/11 01:54:41;;;;;;;45.80;21.67;;;;;;;-4.03;100.00;100530.09;5052795;28;20196;-67
2024/01/11 01:57:10;;;;;;;43.72;22.38;;;;;;;-4.17;100.00;100530.09;5051820;28;20593;-67
2024/01/11 01:59:37;;;;;;;46.40;23.33;;;;;;;-3.77;100.00;100517.44;5052251;28;20098;-67
2024/01/11 02:02:03;;;;;;;40.45;21.98;;;;;;;-3.57;100.00;100520.94;5052691;28;20028;-67
2024/01/11 02:04:29;;;;;;;52.97;26.13;;;;;;;-3.45;100.00;100509.34;5051847;28;20036;-67
2024/01/11 02:06:55;;;;;;;51.97;27.77;;;;;;;-3.26;100.00;100522.13;5036846;28;20033;-67
2024/01/11 02:09:20;;;;;;;72.10;27.08;;;;;;;-3.39;100.00;100509.31;5016970;28;20514;-67
2024/01/11 02:11:46;;;;;;;43.63;24.50;;;;;;;-3.54;100.00;100514.22;5047753;28;20591;-67
2024/01/11 02:14:11;;;;;;;54.67;28.17;;;;;;;-4.00;100.00;100510.53;5065542;28;20037;-67
2024/01/11 02:16:37;;;;;;;54.10;27.20;;;;;;;-4.46;100.00;100512.25;5072373;28;20039;-67
2024/01/11 02:19:06;;;;;;;49.67;25.08;;;;;;;-4.43;100.00;100501.75;5072773;28;20111;-67
2024/01/11 02:21:33;;;;;;;48.00;23.95;;;;;;;-4.09;100.00;100502.56;5072242;28;20025;-67
2024/01/11 02:24:06;;;;;;;48.65;28.27;;;;;;;-3.77;100.00;100498.28;5052968;28;20024;-67
2024/01/11 02:26:32;;;;;;;53.05;24.23;;;;;;;-3.59;100.00;100498.44;5072195;28;20402;-67
2024/01/11 02:28:58;;;;;;;47.85;24.05;;;;;;;-3.55;100.00;100496.13;5053971;28;20131;-67
2024/01/11 02:31:24;;;;;;;50.20;25.75;;;;;;;-3.80;100.00;100496.84;5072237;28;20071;-67
2024/01/11 02:33:51;;;;;;;50.65;24.48;;;;;;;-3.47;100.00;100492.31;5053377;28;20034;-67
2024/01/11 02:36:18;;;;;;;49.33;25.73;;;;;;;-3.38;100.00;100501.94;5049486;28;20112;-67
2024/01/11 02:38:44;;;;;;;50.15;27.33;;;;;;;-3.39;100.00;100501.09;5065063;28;20060;-67
2024/01/11 02:41:11;;;;;;;57.38;28.17;;;;;;;-3.41;100.00;100485.94;5053227;28;20125;-67
2024/01/11 02:43:37;;;;;;;49.47;25.27;;;;;;;-3.87;100.00;100498.75;5053210;28;20031;-67
2024/01/11 02:46:03;;;;;;;54.45;27.30;;;;;;;-3.53;100.00;100494.84;5053820;28;20024;-67
2024/01/11 02:48:29;;;;;;;55.60;25.75;;;;;;;-3.34;100.00;100491.38;5071950;28;20510;-67
2024/01/11 02:50:56;;;;;;;70.45;33.53;;;;;;;-3.35;100.00;100492.44;5059805;28;20033;-67
2024/01/11 02:53:21;;;;;;;56.17;27.85;;;;;;;-4.61;100.00;100501.53;5052188;28;20033;-70
2024/01/11 02:55:47;;;;;;;61.22;28.83;;;;;;;-4.67;100.00;100498.59;5069784;28;20398;-68
2024/01/11 02:58:12;;;;;;;60.20;29.30;;;;;;;-4.28;100.00;100493.34;5067765;28;20033;-68
2024/01/11 03:00:37;;;;;;;61.85;29.20;;;;;;;-4.49;100.00;100488.91;5050268;28;20029;-68
2024/01/11 03:03:03;;;;;;;67.47;29.58;;;;;;;-4.53;100.00;100482.22;5051522;28;20514;-68
2024/01/11 03:05:29;;;;;;;57.67;30.25;;;;;;;-4.11;100.00;100480.06;5066484;28;20021;-68
2024/01/11 03:07:54;;;;;;;59.65;29.55;;;;;;;-3.95;100.00;100478.75;5071527;28;20024;-68
2024/01/11 03:10:20;;;;;;;61.13;31.13;;;;;;;-3.89;100.00;100473.50;5043479;28;20057;-68
2024/01/11 03:12:46;;;;;;;65.22;31.52;;;;;;;-3.85;100.00;100481.06;5057454;28;20527;-68
2024/01/11 03:15:12;;;;;;;69.85;34.88;;;;;;;-4.30;100.00;100472.75;5070682;28;20520;-68
2024/01/11 03:17:37;;;;;;;102.25;44.72;;;;;;;-4.31;100.00;100474.63;5070529;28;20071;-68
2024/01/11 03:20:06;;;;;;;80.35;41.10;;;;;;;-4.44;100.00;100480.09;5065828;28;20045;-67
2024/01/11 03:22:32;;;;;;;71.07;36.63;;;;;;;-4.31;100.00;100474.63;5054298;28;20024;-68
2024/01/11 03:24:57;;;;;;;74.10;35.95;;;;;;;-4.13;100.00;100462.22;5071385;28;20412;-68
2024/01/11 03:27:22;;;;;;;61.30;31.50;;;;;;;-4.26;100.00;100463.06;5071189;28;20029;-68
2024/01/11 03:29:49;;;;;;;50.97;27.00;;;;;;;-4.07;100.00;100463.25;5059468;28;20033;-68
2024/01/11 03:32:14;;;;;;;53.13;27.30;;;;;;;-3.97;100.00;100474.59;5034670;28;20025;-68
2024/01/11 03:34:40;;;;;;;56.50;26.42;;;;;;;-4.04;100.00;100457.34;5071177;28;20020;-68
2024/01/11 03:37:05;;;;;;;44.72;24.08;;;;;;;-4.16;100.00;100462.63;5049938;28;20081;-68
2024/01/11 03:39:31;;;;;;;48.97;24.10;;;;;;;-4.43;100.00;100460.78;5033299;28;20035;-68
2024/01/11 03:41:56;;;;;;;46.08;21.27;;;;;;;-4.07;100.00;100457.78;5063625;28;20033;-68
2024/01/11 03:44:22;;;;;;;72.30;29.88;;;;;;;-4.13;100.00;100457.56;5053095;28;20398;-68
2024/01/11 03:46:48;;;;;;;60.40;26.85;;;;;;;-4.11;100.00;100450.00;5053095;28;20066;-68
2024/01/11 03:49:14;;;;;;;46.60;22.95;;;;;;;-4.37;100.00;100443.53;5071101;28;20028;-68
2024/01/11 03:51:40;;;;;;;37.03;20.70;;;;;;;-4.12;100.00;100448.31;5062422;28;20477;-68
2024/01/11 03:54:05;;;;;;;33.00;19.20;;;;;;;-4.25;100.00;100451.06;5033741;28;20124;-68
2024/01/11 03:56:31;;;;;;;31.65;16.70;;;;;;;-4.26;100.00;100441.19;5051005;28;20021;-68
2024/01/11 03:58:56;;;;;;;39.30;19.98;;;;;;;-3.98;100.00;100443.66;5059132;28;20511;-68
2024/01/11 04:01:22;;;;;;;45.22;19.15;;;;;;;-4.05;100.00;100442.00;5052442;28;20107;-68
2024/01/11 04:03:49;;;;;;;43.30;18.02;;;;;;;-4.15;100.00;100437.81;5070869;28;20024;-67
2024/01/11 04:06:24;;;;;;;43.15;21.33;;;;;;;-3.87;100.00;100435.84;5052865;28;20021;-68
2024/01/11 04:08:50;;;;;;;45.42;22.45;;;;;;;-3.70;100.00;100434.31;5051756;28;20603;-68
2024/01/11 04:11:17;;;;;;;41.95;22.60;;;;;;;-4.30;100.00;100435.31;5065770;28;20505;-67
2024/01/11 04:13:42;;;;;;;51.28;24.05;;;;;;;-4.70;100.00;100443.56;5071042;28;20024;-67
2024/01/11 04:16:08;;;;;;;47.25;22.48;;;;;;;-5.21;100.00;100435.72;5056686;28;20166;-67
2024/01/11 04:18:34;;;;;;;48.42;24.15;;;;;;;-5.14;100.00;100432.19;5056836;28;20119;-67
2024/01/11 04:20:59;;;;;;;57.90;26.75;;;;;;;-5.07;100.00;100436.59;5065297;28;20016;-67
2024/01/11 04:23:25;;;;;;;55.08;26.42;;;;;;;-5.12;100.00;100433.66;5070317;28;20028;-67
2024/01/11 04:25:51;;;;;;;58.92;28.00;;;;;;;-5.20;100.00;100436.56;5036720;28;20029;-67
2024/01/11 04:28:17;;;;;;;63.58;27.77;;;;;;;-5.37;100.00;100439.69;5056813;28;20104;-67
2024/01/11 04:30:43;;;;;;;68.90;28.52;;;;;;;-5.46;100.00;100429.16;5056064;28;20028;-67
2024/01/11 04:33:09;;;;;;;70.93;30.23;;;;;;;-5.30;100.00;100436.13;5055705;28;20067;-68
2024/01/11 04:35:34;;;;;;;68.30;30.20;;;;;;;-5.33;100.00;100437.38;5055270;28;20024;-67
2024/01/11 04:38:00;;;;;;;58.03;23.90;;;;;;;-5.19;100.00;100437.41;5074227;28;20020;-67
2024/01/11 04:40:26;;;;;;;43.17;19.35;;;;;;;-5.33;100.00;100433.81;5055833;28;20028;-67
2024/01/11 04:42:51;;;;;;;37.65;19.02;;;;;;;-5.30;100.00;100438.84;5074151;28;20044;-67
2024/01/11 04:45:16;;;;;;;35.67;19.88;;;;;;;-5.38;100.00;100437.16;5072319;28;20024;-67
2024/01/11 04:47:42;;;;;;;39.13;20.05;;;;;;;-5.25;100.00;100437.19;5056181;28;20024;-68
2024/01/11 04:50:07;;;;;;;38.53;21.65;;;;;;;-5.04;100.00;100449.00;5073602;28;20020;-67
2024/01/11 04:52:33;;;;;;;49.45;28.73;;;;;;;-4.80;100.00;100444.81;5056023;28;20036;-67
2024/01/11 04:54:58;;;;;;;52.75;28.95;;;;;;;-5.17;100.00;100435.34;5055412;28;20518;-67
2024/01/11 04:57:24;;;;;;;54.67;27.77;;;;;;;-5.40;100.00;100437.34;5071586;28;20570;-67
2024/01/11 04:59:49;;;;;;;39.10;21.13;;;;;;;-5.52;100.00;100428.09;5051248;28;20028;-67
2024/01/11 05:02:15;;;;;;;35.20;18.23;;;;;;;-5.45;100.00;100423.50;5073863;28;20017;-67
2024/01/11 05:04:40;;;;;;;32.28;17.38;;;;;;;-5.42;100.00;100425.00;5073169;28;20460;-67
2024/01/11 05:07:06;;;;;;;36.55;19.15;;;;;;;-5.40;100.00;100425.63;5055907;28;20460;-67
2024/01/11 05:09:31;;;;;;;43.95;20.60;;;;;;;-5.52;100.00;100426.22;5073674;28;20020;-67
2024/01/11 05:11:57;;;;;;;49.42;23.15;;;;;;;-5.57;100.00;100420.53;5055221;28;20083;-67
2024/01/11 05:14:22;;;;;;;43.30;24.08;;;;;;;-5.47;100.00;100414.69;5056344;28;20054;-67
2024/01/11 05:16:48;;;;;;;43.38;19.48;;;;;;;-5.65;100.00;100421.56;5071742;28;20029;-68
2024/01/11 05:19:13;;;;;;;35.50;17.60;;;;;;;-5.88;100.00;100411.00;5055622;28;20028;-67
2024/01/11 05:21:39;;;;;;;28.88;15.07;;;;;;;-5.79;100.00;100417.09;5073561;28;20028;-69
2024/01/11 05:24:04;;;;;;;34.15;16.17;;;;;;;-5.50;100.00;100404.19;5055407;28;20031;-67
2024/01/11 05:26:31;;;;;;;41.38;23.00;;;;;;;-5.43;100.00;100404.19;5071444;28;20032;-67
2024/01/11 05:28:57;;;;;;;64.45;31.63;;;;;;;-5.44;100.00;100402.50;5072954;28;20087;-67
2024/01/11 05:31:22;;;;;;;92.10;41.55;;;;;;;-5.14;100.00;100413.91;5070125;28;20027;-68
2024/01/11 05:33:48;;;;;;;123.18;55.72;;;;;;;-5.19;100.00;100408.25;5035911;28;20126;-67
2024/01/11 05:36:13;;;;;;;115.85;52.63;;;;;;;-5.15;100.00;100404.03;5047668;28;20032;-67
2024/01/11 05:38:40;;;;;;;89.75;45.13;;;;;;;-4.88;100.00;100405.97;5073115;28;20024;-67
2024/01/11 05:41:05;;;;;;;80.68;42.45;;;;;;;-4.83;100.00;100414.34;5071776;28;20032;-67
2024/01/11 05:43:31;;;;;;;136.25;66.47;;;;;;;-4.86;100.00;100410.16;5043489;28;20131;-67
2024/01/11 05:45:56;;;;;;;123.15;56.72;;;;;;;-4.72;100.00;100407.44;5044554;28;20032;-67
2024/01/11 05:48:22;;;;;;;110.07;52.70;;;;;;;-4.61;100.00;100408.66;5056343;28;20032;-67
2024/01/11 05:50:47;;;;;;;116.50;50.90;;;;;;;-4.54;100.00;100395.88;5035829;28;20502;-67
2024/01/11 05:53:13;;;;;;;86.03;44.00;;;;;;;-4.95;100.00;100401.34;5073248;28;20485;-67
2024/01/11 05:55:39;;;;;;;54.60;29.80;;;;;;;-5.09;100.00;100405.09;5052228;28;20477;-67
2024/01/11 05:58:04;;;;;;;81.40;47.03;;;;;;;-5.04;100.00;100408.06;5072469;28;20016;-67
2024/01/11 06:00:30;;;;;;;89.18;47.58;;;;;;;-4.86;100.00;100396.53;5054119;28;20028;-67
2024/01/11 06:02:55;;;;;;;84.43;48.20;;;;;;;-4.80;100.00;100395.66;5057911;28;20020;-67
2024/01/11 06:05:21;;;;;;;79.75;46.60;;;;;;;-4.94;100.00;100405.75;5054570;28;20107;-67
2024/01/11 06:07:47;;;;;;;87.88;46.40;;;;;;;-5.05;100.00;100409.13;5053243;28;20607;-67
2024/01/11 06:10:14;;;;;;;82.78;42.10;;;;;;;-5.18;100.00;100412.66;5060598;28;20043;-67
2024/01/11 06:12:39;;;;;;;85.80;43.13;;;;;;;-5.02;100.00;100394.19;5054774;28;20048;-65
2024/01/11 06:15:05;;;;;;;92.13;42.85;;;;;;;-4.68;100.00;100387.69;5066826;28;20027;-68
2024/01/11 06:17:31;;;;;;;109.18;48.88;;;;;;;-4.66;100.00;100382.84;5070667;28;20044;-68
2024/01/11 06:19:56;;;;;;;117.55;56.58;;;;;;;-4.39;100.00;100387.44;5050429;28;20033;-67
2024/01/11 06:22:22;;;;;;;123.22;60.17;;;;;;;-4.23;100.00;100376.03;5066394;28;20025;-69
2024/01/11 06:24:47;;;;;;;89.97;44.70;;;;;;;-3.97;100.00;100390.66;5067037;28;20032;-72
2024/01/11 06:27:13;;;;;;;172.32;69.07;;;;;;;-3.82;100.00;100392.28;5069559;28;20028;-70
2024/01/11 06:29:38;;;;;;;173.50;75.50;;;;;;;-3.86;100.00;100382.84;5069179;28;20409;-72
2024/01/11 06:32:04;;;;;;;258.48;114.15;;;;;;;-3.70;100.00;100387.81;5067641;28;20035;-70
2024/01/11 06:34:30;;;;;;;140.95;58.92;;;;;;;-3.81;100.00;100385.75;5067559;28;20036;-70
2024/01/11 06:36:56;;;;;;;206.93;98.32;;;;;;;-3.65;100.00;100391.81;5066770;28;20413;-70
2024/01/11 06:39:21;;;;;;;142.45;62.15;;;;;;;-3.67;100.00;100383.81;5064153;28;20067;-70
2024/01/11 06:41:47;;;;;;;104.78;45.38;;;;;;;-3.54;100.00;100386.47;5050780;28;20646;-70
2024/01/11 06:44:12;;;;;;;107.70;45.03;;;;;;;-3.33;100.00;100386.34;5051499;28;20016;-71
2024/01/11 06:46:41;;;;;;;88.97;40.30;;;;;;;-3.19;100.00;100384.38;5051099;28;20527;-70
2024/01/11 06:49:07;;;;;;;89.07;40.67;;;;;;;-3.38;100.00;100376.06;5069787;28;20028;-70
2024/01/11 06:51:33;;;;;;;85.13;37.85;;;;;;;-3.41;100.00;100371.91;5057607;28;20029;-70
2024/01/11 06:54:00;;;;;;;112.25;50.13;;;;;;;-3.57;100.00;100372.38;5054642;28;20033;-69
2024/01/11 06:56:27;;;;;;;141.35;59.28;;;;;;;-3.66;100.00;100371.81;5050995;28;20058;-72
2024/01/11 06:58:52;;;;;;;100.78;51.83;;;;;;;-3.39;100.00;100369.78;5069989;28;20091;-68
2024/01/11 07:01:18;;;;;;;128.15;66.65;;;;;;;-3.20;100.00;100372.56;5050002;28;20433;-69
2024/01/11 07:03:44;;;;;;;91.68;49.55;;;;;;;-3.32;100.00;100363.41;5069354;28;20081;-68
2024/01/11 07:06:11;;;;;;;79.18;41.08;;;;;;;-3.23;100.00;100361.25;5065506;28;20024;-68
2024/01/11 07:08:40;;;;;;;73.28;35.65;;;;;;;-3.02;100.00;100365.50;5062508;28;20028;-68
2024/01/11 07:11:05;;;;;;;75.40;40.38;;;;;;;-3.17;100.00;100371.31;5072075;28;20051;-68
2024/01/11 07:13:31;;;;;;;90.28;45.55;;;;;;;-3.06;100.00;100370.59;5070767;28;20028;-68
2024/01/11 07:15:58;;;;;;;99.47;51.78;;;;;;;-3.19;100.00;100362.47;5072025;28;20042;-68
2024/01/11 07:18:28;;;;;;;91.20;44.33;;;;;;;-3.37;100.00;100366.81;5054887;28;20024;-68
2024/01/11 07:20:56;;;;;;;93.30;49.42;;;;;;;-3.14;100.00;100368.13;5068282;28;20039;-68
2024/01/11 07:23:22;;;;;;;59.03;33.35;;;;;;;-3.39;100.00;100358.81;5051321;28;20440;-68
2024/01/11 07:25:47;;;;;;;40.90;24.13;;;;;;;-3.59;100.00;100371.78;5039777;28;20110;-66
2024/01/11 07:28:13;;;;;;;45.60;25.77;;;;;;;-3.59;100.00;100369.91;5056644;28;20036;-69
2024/01/11 07:30:39;;;;;;;58.80;32.83;;;;;;;-3.21;100.00;100367.34;5041251;28;20494;-74
2024/01/11 07:33:05;;;;;;;68.05;38.08;;;;;;;-3.25;100.00;100365.06;5058163;28;20461;-70
2024/01/11 07:35:31;;;;;;;66.53;36.60;;;;;;;-3.47;100.00;100366.47;5057326;28;20085;-69
2024/01/11 07:37:57;;;;;;;69.40;33.78;;;;;;;-3.12;100.00;100360.53;5039188;28;20079;-69
2024/01/11 07:40:23;;;;;;;65.70;34.22;;;;;;;-3.13;100.00;100356.97;5046189;28;20435;-69
2024/01/11 07:42:49;;;;;;;47.63;27.42;;;;;;;-3.52;100.00;100348.78;5054794;28;20028;-71
2024/01/11 07:45:15;;;;;;;60.17;30.27;;;;;;;-3.21;100.00;100354.47;5061365;28;20493;-70
2024/01/11 07:47:41;;;;;;;67.38;34.70;;;;;;;-2.82;100.00;100351.66;5067174;28;20036;-70
2024/01/11 07:50:09;;;;;;;100.03;46.88;;;;;;;-2.70;100.00;100340.81;5066373;28;20107;-71
2024/01/11 07:52:36;;;;;;;80.45;45.15;;;;;;;-2.68;100.00;100344.16;5051135;28;20536;-71
2024/01/11 07:55:08;;;;;;;52.80;27.83;;;;;;;-2.31;100.00;100344.19;5044165;28;20070;-71
2024/01/11 07:57:34;;;;;;;67.75;33.10;;;;;;;-2.16;100.00;100342.97;5067598;28;20035;-69
2024/01/11 08:00:00;;;;;;;63.42;32.63;;;;;;;-2.13;100.00;100348.00;5062787;28;20028;-68
2024/01/11 08:02:26;;;;;;;66.57;33.83;;;;;;;-2.40;100.00;100334.59;5065765;28;20024;-69
2024/01/11 08:04:52;;;;;;;55.15;27.38;;;;;;;-2.27;100.00;100333.63;5062446;28;20025;-71
2024/01/11 08:07:17;;;;;;;57.95;27.35;;;;;;;-2.42;100.00;100337.53;5055919;28;20094;-74
2024/01/11 08:09:45;;;;;;;58.55;31.60;;;;;;;-2.56;100.00;100333.28;5065659;28;20029;-72
2024/01/11 08:12:11;;;;;;;50.20;28.98;;;;;;;-2.44;100.00;100325.97;5046762;28;20124;-72
2024/01/11 08:14:36;;;;;;;66.85;33.38;;;;;;;-2.36;100.00;100322.09;5068241;28;20032;-69
2024/01/11 08:17:04;;;;;;;57.22;32.30;;;;;;;-2.54;100.00;100317.44;5068109;28;20028;-71
2024/01/11 08:19:30;;;;;;;75.68;37.13;;;;;;;-2.22;100.00;100317.31;5064250;28;20032;-72
2024/01/11 08:21:56;;;;;;;52.80;28.45;;;;;;;-1.90;100.00;100308.91;5065727;28;20036;-74
2024/01/11 08:24:22;;;;;;;53.15;31.30;;;;;;;-2.08;100.00;100311.66;5048863;28;20024;-71
2024/01/11 08:26:47;;;;;;;53.42;29.38;;;;;;;-2.30;100.00;100312.97;5068921;28;20035;-68
2024/01/11 08:29:13;;;;;;;60.50;35.58;;;;;;;-2.31;100.00;100310.44;5070302;28;20020;-72
2024/01/11 08:31:39;;;;;;;60.15;35.28;;;;;;;-2.19;100.00;100297.66;5069901;28;20488;-73
2024/01/11 08:34:04;;;;;;;62.90;35.10;;;;;;;-1.93;100.00;100303.88;5067601;28;20107;-69
2024/01/11 08:36:34;;;;;;;54.95;32.47;;;;;;;-1.92;100.00;100304.72;5068419;28;20449;-69
2024/01/11 08:39:02;;;;;;;;;;;;;;;-1.89;100.00;100307.84;5069118;28;20036;-70
2024/01/11 08:41:28;;;;;;;68.03;30.33;;;;;;;-1.88;100.00;100304.03;5070054;28;19912;-69
2024/01/11 08:43:53;;;;;;;51.40;27.77;;;;;;;-1.56;100.00;100298.31;5066822;28;20374;-71
2024/01/11 08:46:25;;;;;;;61.17;31.10;;;;;;;-1.39;100.00;100297.63;5068888;28;20047;-69
2024/01/11 08:48:55;;;;;;;48.80;29.75;;;;;;;-1.32;100.00;100303.84;5066338;28;20565;-70
2024/01/11 08:51:21;;;;;;;58.80;29.95;;;;;;;-1.10;100.00;100289.53;5067987;28;20032;-70
2024/01/11 08:53:47;;;;;;;55.88;29.38;;;;;;;-1.23;100.00;100279.63;5069513;28;20409;-70
2024/01/11 08:56:12;;;;;;;57.22;29.10;;;;;;;-1.06;100.00;100266.03;5051947;28;20020;-69
2024/01/11 08:58:40;;;;;;;49.50;28.30;;;;;;;-1.06;100.00;100267.94;5068370;28;20027;-72
2024/01/11 09:01:08;;;;;;;51.35;31.13;;;;;;;-1.07;100.00;100258.03;5067815;28;20075;-69
2024/01/11 09:03:36;;;;;;;43.30;24.10;;;;;;;-0.77;100.00;100265.31;5065394;28;20506;-69
2024/01/11 09:06:03;;;;;;;40.40;24.83;;;;;;;-0.81;100.00;100258.63;5064415;28;20081;-68
2024/01/11 09:08:29;;;;;;;51.38;28.08;;;;;;;-0.63;100.00;100243.91;5072732;28;20021;-68
2024/01/11 09:10:55;;;;;;;51.15;29.17;;;;;;;-0.48;100.00;100236.00;5070331;28;20040;-70
2024/01/11 09:13:21;;;;;;;92.05;47.55;;;;;;;-0.27;100.00;100238.34;5049749;28;20460;-69
2024/01/11 09:15:46;;;;;;;84.05;40.60;;;;;;;-0.39;100.00;100227.38;5049699;28;20037;-70
2024/01/11 09:18:12;;;;;;;49.97;28.63;;;;;;;-0.23;100.00;100223.00;5071950;28;20029;-69
2024/01/11 09:20:37;;;;;;;110.70;45.22;;;;;;;-0.27;98.00;100225.41;5070847;28;20032;-69
2024/01/11 09:23:03;;;;;;;48.17;24.80;;;;;;;0.09;98.95;100217.84;5073022;28;20094;-71
2024/01/11 09:25:32;;;;;;;56.30;27.70;;;;;;;0.02;98.74;100219.94;5070927;28;20020;-71
2024/01/11 09:27:58;;;;;;;38.65;20.70;;;;;;;0.11;97.30;100212.13;5072079;28;20032;-70
2024/01/11 09:30:23;;;;;;;47.45;25.05;;;;;;;-0.12;97.55;100210.28;5071985;28;20029;-70
2024/01/11 09:32:49;;;;;;;41.63;23.38;;;;;;;0.07;97.19;100208.19;5072921;28;20489;-69
2024/01/11 09:35:15;;;;;;;45.28;24.25;;;;;;;0.23;96.92;100201.88;5072892;28;20412;-71
2024/01/11 09:37:40;;;;;;;55.30;27.73;;;;;;;0.35;98.64;100198.22;5054824;28;20531;-69
2024/01/11 09:40:10;;;;;;;40.65;24.85;;;;;;;0.49;95.70;100182.22;5061854;28;20032;-70
2024/01/11 09:42:38;;;;;;;41.67;25.58;;;;;;;0.43;95.25;100177.69;5068443;28;20035;-70
2024/01/11 09:45:08;;;;;;;51.95;26.38;;;;;;;0.53;94.28;100172.38;5051449;28;20105;-70
2024/01/11 09:47:36;;;;;;;50.80;28.92;;;;;;;0.29;95.84;100164.28;5066193;28;20021;-70
2024/01/11 09:50:03;;;;;;;51.97;28.58;;;;;;;0.77;96.53;100170.25;5049646;28;20029;-70
2024/01/11 09:52:28;;;;;;;43.38;23.55;;;;;;;0.70;93.20;100161.34;5069076;28;20024;-69
2024/01/11 09:54:54;;;;;;;34.28;22.38;;;;;;;1.10;91.16;100149.22;5049251;28;20039;-68
2024/01/11 09:57:28;;;;;;;40.15;22.25;;;;;;;1.27;88.63;100153.88;5037334;28;20121;-70
2024/01/11 09:59:56;;;;;;;42.03;22.38;;;;;;;0.78;88.76;100146.31;5063075;28;20412;-69
2024/01/11 10:02:28;;;;;;;36.95;21.50;;;;;;;0.68;90.22;100153.31;5040940;28;20043;-70
2024/01/11 10:04:54;;;;;;;35.88;21.50;;;;;;;1.01;91.77;100136.16;5052970;28;20032;-72
2024/01/11 10:07:22;;;;;;;41.50;23.02;;;;;;;1.43;91.23;100130.06;5062263;28;20462;-69
2024/01/11 10:09:48;;;;;;;30.08;19.73;;;;;;;1.71;88.24;100128.16;5069390;28;20593;-67
2024/01/11 10:12:14;;;;;;;36.00;21.15;;;;;;;1.72;86.31;100131.75;5051780;28;20429;-70
2024/01/11 10:14:39;;;;;;;35.67;20.20;;;;;;;1.33;90.62;100118.94;5053699;28;20021;-70
2024/01/11 10:17:06;;;;;;;41.88;22.48;;;;;;;1.73;89.65;100117.72;5052428;28;20036;-70
2024/01/11 10:19:31;;;;;;;38.13;22.20;;;;;;;2.17;88.58;100113.13;5064128;28;20028;-69
2024/01/11 10:21:58;;;;;;;35.35;22.27;;;;;;;2.35;87.07;100100.84;5068774;28;20449;-70
2024/01/11 10:24:26;;;;;;;35.08;20.00;;;;;;;2.31;86.79;100092.28;5069898;28;20386;-70
2024/01/11 10:26:55;;;;;;;37.13;22.70;;;;;;;2.43;87.40;100086.56;5069967;28;20024;-69
2024/01/11 10:29:21;;;;;;;43.15;25.58;;;;;;;2.83;86.35;100092.59;5070983;28;20021;-71
2024/01/11 10:31:47;;;;;;;36.60;22.25;;;;;;;2.36;87.67;100080.44;5054124;28;20036;-72
2024/01/11 10:34:12;;;;;;;34.15;20.05;;;;;;;2.27;88.87;100073.75;5054280;28;20029;-69
2024/01/11 10:36:38;;;;;;;40.13;20.65;;;;;;;2.14;88.80;100072.25;5070554;28;20425;-72
2024/01/11 10:39:04;;;;;;;40.45;20.45;;;;;;;2.48;87.91;100064.50;5035089;28;20024;-72
2024/01/11 10:41:38;;;;;;;78.35;41.33;;;;;;;2.85;86.94;100065.53;5051719;28;20073;-71
2024/01/11 10:44:07;;;;;;;122.28;70.15;;;;;;;2.99;87.31;100059.50;5045029;28;20024;-72
2024/01/11 10:46:35;;;;;;;39.75;24.23;;;;;;;3.05;85.42;100050.16;5024349;28;20052;-75
2024/01/11 10:49:04;;;;;;;32.40;18.95;;;;;;;3.18;84.34;100055.16;5051277;28;20060;-72
2024/01/11 10:51:32;;;;;;;43.67;18.52;;;;;;;3.37;83.35;100043.59;5071650;28;20035;-71
2024/01/11 10:54:00;;;;;;;39.22;18.88;;;;;;;3.64;81.46;100032.31;5061994;28;21615;-75
2024/01/11 10:56:28;;;;;;;35.22;17.95;;;;;;;3.81;81.28;100034.00;5061640;28;20108;-75
2024/01/11 10:58:55;;;;;;;36.35;22.30;;;;;;;3.79;82.13;100027.88;5060355;28;20033;-73